createdAt,value
2023-05-14T18:41:32.783Z,2.30
2023-05-14T18:43:59.180Z,2.30
2023-05-14T18:46:30.760Z,2.80
2023-05-14T18:48:59.137Z,2.90
2023-05-14T18:51:30.007Z,2.70
2023-05-14T18:53:59.045Z,2.60
2023-05-14T18:56:25.568Z,2.70
2023-05-14T18:58:53.017Z,2.90
2023-05-14T19:01:20.563Z,2.80
2023-05-14T19:03:47.024Z,2.80
2023-05-14T19:06:13.574Z,2.80
2023-05-14T19:08:40.810Z,3.30
2023-05-14T19:11:07.269Z,3.10
2023-05-14T19:13:33.914Z,3.00
2023-05-14T19:16:00.357Z,2.90
2023-05-14T19:18:26.844Z,2.70
2023-05-14T19:20:53.225Z,3.00
2023-05-14T19:23:19.581Z,3.10
2023-05-14T19:25:45.938Z,2.80
2023-05-14T19:28:13.708Z,2.90
2023-05-14T19:30:40.656Z,3.10
2023-05-14T19:33:07.167Z,3.40
2023-05-14T19:35:33.962Z,3.40
2023-05-14T19:38:00.232Z,3.50
2023-05-14T19:40:26.590Z,3.50
2023-05-14T19:42:55.418Z,3.60
2023-05-14T19:45:22.108Z,4.00
2023-05-14T19:47:48.619Z,4.90
2023-05-14T19:50:15.293Z,5.30
2023-05-14T19:52:41.836Z,5.30
2023-05-14T19:55:08.607Z,5.00
2023-05-14T19:57:35.067Z,5.30
2023-05-14T20:00:01.373Z,5.40
2023-05-14T20:02:31.309Z,5.50
2023-05-14T20:04:57.892Z,5.30
2023-05-14T20:07:25.162Z,5.50
2023-05-14T20:09:51.629Z,5.70
2023-05-14T20:12:18.010Z,5.90
2023-05-14T20:14:44.379Z,6.00
2023-05-14T20:17:10.993Z,6.10
2023-05-14T20:19:37.314Z,7.10
2023-05-14T20:22:03.973Z,6.50
2023-05-14T20:24:30.705Z,6.10
2023-05-14T20:26:57.005Z,5.80
2023-05-14T20:29:23.353Z,5.80
2023-05-14T20:31:49.737Z,5.30
2023-05-14T20:34:16.167Z,5.60
2023-05-14T20:36:42.482Z,5.90
2023-05-14T20:39:10.334Z,6.50
